Résultats sport de masse course à pied

Résultats : Trail des légendes de Brocéliande - TRAIL 49 KM

Classement général Classement Catégorie Nom, prénom Catégorie Sexe Club Temps global
161 51 LE ROUX Mickael V1 M 05:59:40
162 52 PERSEHAIE Laurent V1 M 06:00:58
164 53 LE BRAS PHILIPPE V1 M S/L PACE EN COURANT 06:01:26
165 54 DESPREZ OLIVIER V1 M TO BE SPORT REDEG 29 06:01:27
168 55 LUCAS Stephane V1 M GUALOUPADEN 06:02:29
169 56 ESNAULT Christophe V1 M 06:02:29
175 57 LE PICARD BRUNO V1 M TRAILER D ARMOR 06:03:51
181 58 MIMEY Eddy V1 M 06:08:16
184 59 LE GOUALLEC ARNAUD V1 M FOULLEES DE CLEGUER 06:08:29
185 60 COUDON Rodrigue V1 M LM ENDURANCE 06:09:03
187 61 DOLO CHRISTOPHE V1 M TRIATHLON ATLANTIQUE CARQUEFOU 06:10:13
193 62 GUERIN Patrice V1 M LES JOGGERS DU COUESNON 06:11:58
194 63 FERRON David V1 M SAINT GREGOIRE TRIATHLON 06:12:23
198 64 LAVIGNE Cécilian V1 M TCMB 06:16:09
199 65 CLEMENT FRANCOIS-REGIS V1 M MEGACLUB 06:16:51
200 66 LENOIR Vincent V1 M 06:17:13
201 67 FRADET Patrice V1 M BE ALIVE 06:17:52
202 68 LEFEBVRE DAVID V1 M ART NORMANDIE 06:18:22
205 69 DEWAME STEPHANE V1 M L ULTRA MARIN 06:18:45
206 70 LEPRETRE Thierry V1 M ATHLETIC BAIE DES EBIHENS 06:18:56
209 71 LE POULIQUEN Yann V1 M PLANCOET ARGUENON RUNNING 06:19:43
210 72 LEMONNIER SAMUEL V1 M ATHLETIC BAIE DES EBIHENS 06:20:42
211 73 LHOTELLIER Pascal V1 M 06:21:16
212 74 FREMONT Laurent V1 M 06:21:48
214 75 LEROSEY MICHAEL V1 M 06:22:41
215 76 ROCHET Stephane V1 M SNLS44 06:23:23
220 77 MARTIN YANNICK V1 M UAC 06:25:38
229 78 LE MENER JEROME V1 M 06:29:11
232 79 TUAL FREDERIC V1 M 06:31:24
233 80 LEBRUN Denis V1 M BROCELIANDE AVENTURE 35 06:31:25
236 81 RONDEAUX Hervé V1 M 06:31:54
242 82 POISSON JEROME V1 M 06:34:59
244 83 LE GUYADER YVAN V1 M TEAM BREIZH 06:35:17
246 84 LE LAMER Sebastien V1 M OXYGENE PLOUNEVENTER 06:36:03
248 85 CHAPON Didier V1 M AC HV NOUVOITOU 06:36:30
250 86 FRELAUT Cedric V1 M LES CAVALEURS BREST 06:38:27
253 87 CHAUVIN Philippe V1 M GEVEZE C EST L PIED 06:42:24
254 88 PLUMAIL JEROME V1 M TRIATHLON DU PAYS DU NEUBOURG 06:42:27
259 89 SALAUN DAVID V1 M 06:43:22
261 90 AMELOT STEPHANE V1 M ATHLETIC BAIE DES EBIHENS 06:47:36
267 91 RAVELEAU Mickael V1 M 06:54:58
268 92 CERESA SEBASTIEN V1 M 06:54:59
272 93 PARTAL Stephane V1 M 06:57:58
275 94 BILLON FRANCIS V1 M 07:00:12
276 95 HARKAT CEDRIC V1 M TEAM BREIZH 07:00:20
282 96 ORLANDI THOMAS V1 M AXEREAL ATHLETISME 07:10:09
284 97 ODIC Xavier V1 M 07:11:07
287 98 POUPON Johan V1 M 07:13:51
290 99 BAZILE Pierre-yves V1 M TD44 07:33:33
DNF 0 BAURY Samuel V1 M BA 35 00:00:00